Time;durP1;ratioP1;P1;durP2;ratioP2;P2;SDS_P1;SDS_P2;PMS_P1;PMS_P2;Temp;Humidity;BMP_temperature;BMP_pressure;BME280_temperature;BME280_humidity;BME280_pressure;Samples;Min_cycle;Max_cycle;Signal;HPM_P1;HPM_P2
2022/11/09 00:01:18;;;;;;;5.53;2.75;;;;;;;;;;5068761;28;20628;-67
2022/11/09 00:03:44;;;;;;;4.78;2.80;;;;;;;;;;5071372;28;20021;-67
2022/11/09 00:06:09;;;;;;;7.85;2.92;;;;;;;;;;5071208;28;20098;-67
2022/11/09 00:08:37;;;;;;;5.93;3.03;;;;;;;;;;5071189;28;20471;-67
2022/11/09 00:11:04;;;;;;;6.20;3.10;;;;;;;;;;5070974;28;20044;-66
2022/11/09 00:13:30;;;;;;;4.75;2.70;;;;;;;;;;5070952;28;20047;-68
2022/11/09 00:16:00;;;;;;;4.10;2.63;;;;;;;;;;5071233;28;20374;-66
2022/11/09 00:18:26;;;;;;;;;;;;;;;;;;5071654;28;20085;-68
2022/11/09 00:20:51;;;;;;;5.60;2.80;;;;;;;;;;5070932;28;20367;-67
2022/11/09 00:23:17;;;;;;;6.40;2.80;;;;;;;;;;5071081;28;20413;-69
2022/11/09 00:25:43;;;;;;;5.25;2.80;;;;;;;;;;5071067;28;20115;-67
2022/11/09 00:28:08;;;;;;;4.78;2.65;;;;;;;;;;5070903;28;20025;-67
2022/11/09 00:30:34;;;;;;;6.13;3.17;;;;;;;;;;5070789;28;20375;-68
2022/11/09 00:32:59;;;;;;;5.10;3.30;;;;;;;;;;5069644;28;20111;-67
2022/11/09 00:35:25;;;;;;;5.13;2.83;;;;;;;;;;5071040;28;20468;-68
2022/11/09 00:37:51;;;;;;;4.53;2.80;;;;;;;;;;5072389;28;20052;-67
2022/11/09 00:40:16;;;;;;;4.35;2.75;;;;;;;;;;5071947;28;20068;-68
2022/11/09 00:42:42;;;;;;;7.60;3.08;;;;;;;;;;5072121;28;20027;-68
2022/11/09 00:45:07;;;;;;;6.75;2.95;;;;;;;;;;5072191;28;20025;-67
2022/11/09 00:47:33;;;;;;;5.85;2.75;;;;;;;;;;5072396;28;20031;-65
2022/11/09 00:49:58;;;;;;;7.85;3.05;;;;;;;;;;5072227;28;20365;-68
2022/11/09 00:52:24;;;;;;;7.47;3.15;;;;;;;;;;5072242;28;20059;-69
2022/11/09 00:54:49;;;;;;;7.07;2.80;;;;;;;;;;5072056;28;20024;-68
2022/11/09 00:57:15;;;;;;;6.38;2.88;;;;;;;;;;5070636;28;20489;-66
2022/11/09 00:59:41;;;;;;;4.88;2.90;;;;;;;;;;5070690;28;20033;-68
2022/11/09 01:02:06;;;;;;;5.57;3.00;;;;;;;;;;5072191;28;20108;-66
2022/11/09 01:04:32;;;;;;;5.60;3.00;;;;;;;;;;5072177;28;20036;-66
2022/11/09 01:06:57;;;;;;;5.43;3.15;;;;;;;;;;5072018;28;20070;-67
2022/11/09 01:09:23;;;;;;;4.80;2.63;;;;;;;;;;5072894;28;20027;-68
2022/11/09 01:11:48;;;;;;;5.88;3.30;;;;;;;;;;5072743;28;20037;-67
2022/11/09 01:14:14;;;;;;;6.20;3.08;;;;;;;;;;5075856;28;20032;-68
2022/11/09 01:16:39;;;;;;;8.30;3.13;;;;;;;;;;5075842;28;20056;-68
2022/11/09 01:19:05;;;;;;;4.70;3.15;;;;;;;;;;5075514;28;20024;-68
2022/11/09 01:21:30;;;;;;;6.22;2.92;;;;;;;;;;5075825;28;20028;-67
2022/11/09 01:23:57;;;;;;;6.38;3.10;;;;;;;;;;5074513;28;20021;-66
2022/11/09 01:26:23;;;;;;;5.32;3.20;;;;;;;;;;5075398;28;20035;-68
2022/11/09 01:28:48;;;;;;;6.82;3.03;;;;;;;;;;5075502;28;20021;-67
2022/11/09 01:31:17;;;;;;;6.38;3.13;;;;;;;;;;5075553;28;20028;-68
2022/11/09 01:33:43;;;;;;;13.32;4.22;;;;;;;;;;5064482;28;20023;-68
2022/11/09 01:36:22;;;;;;;9.73;3.95;;;;;;;;;;5074003;28;20024;-67
2022/11/09 01:38:48;;;;;;;10.50;4.00;;;;;;;;;;5070636;28;20017;-69
2022/11/09 01:41:23;;;;;;;13.90;4.60;;;;;;;;;;5073529;28;20044;-67
2022/11/09 01:44:16;;;;;;;13.00;4.25;;;;;;;;;;5072051;28;20536;-68
2022/11/09 01:47:11;;;;;;;10.52;4.18;;;;;;;;;;5069190;28;20033;-69
2022/11/09 01:49:51;;;;;;;9.38;4.30;;;;;;;;;;5072794;28;20403;-69
2022/11/09 01:52:26;;;;;;;9.85;4.28;;;;;;;;;;5071714;28;20024;-68
2022/11/09 01:54:57;;;;;;;8.98;3.92;;;;;;;;;;5073724;28;20021;-66
2022/11/09 01:57:42;;;;;;;8.75;3.65;;;;;;;;;;5073240;28;20064;-67
2022/11/09 02:00:14;;;;;;;10.65;3.88;;;;;;;;;;5074250;28;20028;-67
2022/11/09 02:03:16;;;;;;;6.57;3.67;;;;;;;;;;5074110;28;20028;-66
2022/11/09 02:05:42;;;;;;;7.72;3.35;;;;;;;;;;5031834;28;20033;-67
2022/11/09 02:08:11;;;;;;;7.82;3.47;;;;;;;;;;5031595;28;20041;-67
2022/11/09 02:10:44;;;;;;;8.90;3.00;;;;;;;;;;5031446;28;20450;-67
2022/11/09 02:13:13;;;;;;;4.65;3.13;;;;;;;;;;5031749;28;20041;-67
2022/11/09 02:15:40;;;;;;;8.07;3.35;;;;;;;;;;5031779;28;20132;-66
2022/11/09 02:18:06;;;;;;;6.60;2.97;;;;;;;;;;5031685;28;20468;-66
2022/11/09 02:20:44;;;;;;;7.53;3.65;;;;;;;;;;5031357;28;20041;-64
2022/11/09 02:23:10;;;;;;;6.35;3.75;;;;;;;;;;5031353;28;20115;-67
2022/11/09 02:25:35;;;;;;;6.57;3.58;;;;;;;;;;5031405;28;20029;-67
2022/11/09 02:28:00;;;;;;;8.00;3.35;;;;;;;;;;5031160;28;20041;-65
2022/11/09 02:30:26;;;;;;;8.57;3.88;;;;;;;;;;5030212;28;20049;-67
2022/11/09 02:32:53;;;;;;;8.73;3.30;;;;;;;;;;5031094;28;20042;-67
2022/11/09 02:35:19;;;;;;;5.30;3.17;;;;;;;;;;5031417;28;20041;-66
2022/11/09 02:37:48;;;;;;;5.22;3.13;;;;;;;;;;5031340;28;20036;-67
2022/11/09 02:40:22;;;;;;;8.10;3.78;;;;;;;;;;5046943;28;20128;-67
2022/11/09 02:42:48;;;;;;;3.97;2.55;;;;;;;;;;5053550;28;20071;-65
2022/11/09 02:45:13;;;;;;;8.57;4.05;;;;;;;;;;5053335;28;20029;-66
2022/11/09 02:47:39;;;;;;;5.47;3.10;;;;;;;;;;5053307;28;20029;-66
2022/11/09 02:50:05;;;;;;;5.15;2.70;;;;;;;;;;5053190;28;20032;-67
2022/11/09 02:52:30;;;;;;;7.47;3.20;;;;;;;;;;5052913;28;20498;-66
2022/11/09 02:54:56;;;;;;;5.78;3.13;;;;;;;;;;5053106;28;20028;-67
2022/11/09 02:57:21;;;;;;;6.15;3.40;;;;;;;;;;5053083;28;20491;-67
2022/11/09 02:59:47;;;;;;;4.90;2.88;;;;;;;;;;5052962;28;20578;-67
2022/11/09 03:02:12;;;;;;;5.10;2.97;;;;;;;;;;5052921;28;20028;-67
2022/11/09 03:04:38;;;;;;;5.00;2.55;;;;;;;;;;5052856;28;20025;-67
2022/11/09 03:07:04;;;;;;;4.65;2.58;;;;;;;;;;5066627;28;20152;-67
2022/11/09 03:09:29;;;;;;;5.43;3.00;;;;;;;;;;5072907;28;20486;-66
2022/11/09 03:11:55;;;;;;;4.95;2.83;;;;;;;;;;5072786;28;20021;-66
2022/11/09 03:14:20;;;;;;;4.32;2.53;;;;;;;;;;5072507;28;20490;-67
2022/11/09 03:16:46;;;;;;;5.93;3.20;;;;;;;;;;5072702;28;20021;-65
2022/11/09 03:19:11;;;;;;;4.15;2.63;;;;;;;;;;5072631;28;20052;-67
2022/11/09 03:21:36;;;;;;;5.82;2.70;;;;;;;;;;5071465;28;20024;-66
2022/11/09 03:24:02;;;;;;;4.10;2.80;;;;;;;;;;5073454;28;20031;-66
2022/11/09 03:26:28;;;;;;;5.90;3.08;;;;;;;;;;5073307;28;20021;-66
2022/11/09 03:28:53;;;;;;;6.88;3.05;;;;;;;;;;5073286;28;20028;-67
2022/11/09 03:31:19;;;;;;;4.95;3.10;;;;;;;;;;5072029;28;20055;-66
2022/11/09 03:33:44;;;;;;;5.90;2.97;;;;;;;;;;5053123;28;20033;-67
2022/11/09 03:36:10;;;;;;;4.10;2.95;;;;;;;;;;5051669;28;20036;-67
2022/11/09 03:38:35;;;;;;;8.05;3.30;;;;;;;;;;5052158;28;20021;-67
2022/11/09 03:41:02;;;;;;;4.45;2.70;;;;;;;;;;5051892;28;20130;-66
2022/11/09 03:43:28;;;;;;;5.47;3.03;;;;;;;;;;5052509;28;20036;-66
2022/11/09 03:45:53;;;;;;;4.68;2.80;;;;;;;;;;5052197;28;20061;-67
2022/11/09 03:48:19;;;;;;;4.55;2.92;;;;;;;;;;5051881;28;20049;-66
2022/11/09 03:50:45;;;;;;;6.28;2.78;;;;;;;;;;5051921;28;20460;-66
2022/11/09 03:53:11;;;;;;;5.25;2.80;;;;;;;;;;5051884;28;20033;-65
2022/11/09 03:55:37;;;;;;;7.47;3.17;;;;;;;;;;5052197;28;20025;-67
2022/11/09 03:58:05;;;;;;;8.55;2.58;;;;;;;;;;5052036;28;20025;-65
2022/11/09 04:00:31;;;;;;;7.22;2.88;;;;;;;;;;5051749;28;20029;-65
2022/11/09 04:02:56;;;;;;;6.03;3.28;;;;;;;;;;5051916;28;20112;-65
2022/11/09 04:05:22;;;;;;;4.03;2.75;;;;;;;;;;5051615;28;20021;-65
2022/11/09 04:07:53;;;;;;;4.70;2.72;;;;;;;;;;5051868;28;20029;-65
2022/11/09 04:10:19;;;;;;;;;;;;;;;;;;5052064;28;20028;-66
2022/11/09 04:12:44;;;;;;;4.40;2.75;;;;;;;;;;5051773;28;19912;-65
2022/11/09 04:15:10;;;;;;;5.95;3.08;;;;;;;;;;5051752;28;20039;-66
2022/11/09 04:17:36;;;;;;;5.13;2.88;;;;;;;;;;5051790;28;20108;-66
2022/11/09 04:20:02;;;;;;;6.03;2.90;;;;;;;;;;5051193;28;20543;-66
2022/11/09 04:22:28;;;;;;;14.63;4.40;;;;;;;;;;5051596;28;20491;-65
2022/11/09 04:24:53;;;;;;;6.55;2.70;;;;;;;;;;5051515;28;20025;-66
2022/11/09 04:27:18;;;;;;;6.00;3.08;;;;;;;;;;5051849;28;20415;-66
2022/11/09 04:29:44;;;;;;;7.20;3.25;;;;;;;;;;5051445;28;20096;-65
2022/11/09 04:32:10;;;;;;;8.88;3.00;;;;;;;;;;5051326;28;20079;-67
2022/11/09 04:34:35;;;;;;;6.45;2.80;;;;;;;;;;5051255;28;20086;-66
2022/11/09 04:37:01;;;;;;;5.00;1.90;;;;;;;;;;5051520;28;20488;-66
2022/11/09 04:39:26;;;;;;;6.47;2.90;;;;;;;;;;5051142;28;20053;-67
2022/11/09 04:41:52;;;;;;;6.05;2.97;;;;;;;;;;5051453;28;20475;-66
2022/11/09 04:44:17;;;;;;;5.88;3.03;;;;;;;;;;5051298;28;20021;-67
2022/11/09 04:46:43;;;;;;;4.95;2.80;;;;;;;;;;5054547;28;20040;-67
2022/11/09 04:49:08;;;;;;;8.20;2.80;;;;;;;;;;5055893;28;20024;-66
2022/11/09 04:51:33;;;;;;;5.03;2.58;;;;;;;;;;5056035;28;20040;-67
2022/11/09 04:53:59;;;;;;;4.30;2.83;;;;;;;;;;5056221;28;20052;-67
2022/11/09 04:56:24;;;;;;;5.18;3.17;;;;;;;;;;5056024;28;20040;-66
2022/11/09 04:58:50;;;;;;;4.45;2.70;;;;;;;;;;5055619;28;20425;-67
2022/11/09 05:01:15;;;;;;;4.90;2.65;;;;;;;;;;5055790;28;20028;-66
2022/11/09 05:03:41;;;;;;;5.30;2.45;;;;;;;;;;5055685;28;20040;-67
2022/11/09 05:08:52;;;;;;;4.75;2.45;;;;;;;;;;5055423;28;20032;-67
2022/11/09 05:11:18;;;;;;;7.50;2.60;;;;;;;;;;5055021;28;20029;-66
2022/11/09 05:13:44;;;;;;;8.82;2.80;;;;;;;;;;5054963;28;20032;-67
2022/11/09 05:16:09;;;;;;;4.95;2.60;;;;;;;;;;5054994;28;20032;-66
2022/11/09 05:18:35;;;;;;;5.95;2.67;;;;;;;;;;5055371;28;20024;-67
2022/11/09 05:21:01;;;;;;;4.47;2.72;;;;;;;;;;5055169;28;20029;-66
2022/11/09 05:26:10;;;;;;;4.68;2.60;;;;;;;;;;5055677;28;20055;-66
2022/11/09 05:28:36;;;;;;;3.80;2.20;;;;;;;;;;5055459;28;20058;-66
2022/11/09 05:31:01;;;;;;;4.82;2.80;;;;;;;;;;5055450;28;20390;-67
2022/11/09 05:33:27;;;;;;;5.03;2.53;;;;;;;;;;5054834;28;20049;-66
2022/11/09 05:35:56;;;;;;;4.40;2.70;;;;;;;;;;5054968;28;20029;-67
2022/11/09 05:38:23;;;;;;;6.28;2.53;;;;;;;;;;5054469;28;20021;-67
2022/11/09 05:40:49;;;;;;;6.65;2.83;;;;;;;;;;5054049;28;20161;-66
2022/11/09 05:43:15;;;;;;;6.65;2.50;;;;;;;;;;5054415;28;20039;-66
2022/11/09 05:45:41;;;;;;;4.05;2.78;;;;;;;;;;5054768;28;20033;-68
2022/11/09 05:48:07;;;;;;;6.30;3.03;;;;;;;;;;5054754;28;20060;-66
2022/11/09 05:50:34;;;;;;;3.85;2.55;;;;;;;;;;5055019;28;20033;-67
2022/11/09 05:53:00;;;;;;;7.20;3.00;;;;;;;;;;5054643;28;20052;-65
2022/11/09 05:55:26;;;;;;;9.48;3.10;;;;;;;;;;5054370;28;20025;-67
2022/11/09 05:57:52;;;;;;;8.05;2.90;;;;;;;;;;5053373;28;20029;-67
2022/11/09 06:00:18;;;;;;;6.00;2.80;;;;;;;;;;5054016;28;20425;-67
2022/11/09 06:02:43;;;;;;;4.47;2.70;;;;;;;;;;5054280;28;20025;-66
2022/11/09 06:05:09;;;;;;;8.80;2.95;;;;;;;;;;5054597;28;20475;-66
2022/11/09 06:07:34;;;;;;;8.88;3.03;;;;;;;;;;5054594;28;20059;-66
2022/11/09 06:10:00;;;;;;;5.75;2.90;;;;;;;;;;5054443;28;20045;-65
2022/11/09 06:12:25;;;;;;;5.45;2.63;;;;;;;;;;5054438;28;20464;-67
2022/11/09 06:14:51;;;;;;;7.50;3.72;;;;;;;;;;5054379;28;20032;-65
2022/11/09 06:17:17;;;;;;;5.03;2.90;;;;;;;;;;5053595;28;20032;-65
2022/11/09 06:19:42;;;;;;;3.45;2.58;;;;;;;;;;5054116;28;20029;-67
2022/11/09 06:22:08;;;;;;;6.63;2.83;;;;;;;;;;5053437;28;20114;-67
2022/11/09 06:24:33;;;;;;;5.78;2.75;;;;;;;;;;5053639;28;20033;-67
2022/11/09 06:26:59;;;;;;;5.43;2.72;;;;;;;;;;5053739;28;20033;-67
2022/11/09 06:29:24;;;;;;;5.65;2.85;;;;;;;;;;5053431;28;20437;-67
2022/11/09 06:31:50;;;;;;;10.00;3.72;;;;;;;;;;5053780;28;20033;-65
2022/11/09 06:34:15;;;;;;;6.80;3.05;;;;;;;;;;5053915;28;20051;-66
2022/11/09 06:36:41;;;;;;;10.45;3.85;;;;;;;;;;5053635;28;20032;-66
2022/11/09 06:39:07;;;;;;;5.95;2.97;;;;;;;;;;5053197;28;20032;-66
2022/11/09 06:41:33;;;;;;;8.32;3.28;;;;;;;;;;5053443;28;20407;-66
2022/11/09 06:43:59;;;;;;;8.13;2.83;;;;;;;;;;5053274;28;20021;-65
2022/11/09 06:46:24;;;;;;;5.65;2.90;;;;;;;;;;5053623;28;20033;-66
2022/11/09 06:48:50;;;;;;;7.88;2.95;;;;;;;;;;5053894;28;20036;-67
2022/11/09 06:51:15;;;;;;;4.25;2.55;;;;;;;;;;5053525;28;20048;-67
2022/11/09 06:53:41;;;;;;;6.97;2.60;;;;;;;;;;5053228;28;20033;-67
2022/11/09 06:56:08;;;;;;;4.47;2.70;;;;;;;;;;5053049;28;20038;-65
2022/11/09 06:58:34;;;;;;;4.53;2.63;;;;;;;;;;5051652;28;20029;-66
2022/11/09 07:00:59;;;;;;;5.00;2.53;;;;;;;;;;5052962;28;20036;-67
2022/11/09 07:03:25;;;;;;;4.38;2.47;;;;;;;;;;5053533;28;20379;-67
2022/11/09 07:05:52;;;;;;;3.95;2.65;;;;;;;;;;5053535;28;20021;-67
2022/11/09 07:08:18;;;;;;;7.63;2.92;;;;;;;;;;5053293;28;20485;-67
2022/11/09 07:10:44;;;;;;;5.20;2.53;;;;;;;;;;5052425;28;20032;-66
2022/11/09 07:13:09;;;;;;;5.35;2.70;;;;;;;;;;5053304;28;20468;-67
2022/11/09 07:15:37;;;;;;;6.85;2.63;;;;;;;;;;5053457;28;20021;-68
2022/11/09 07:18:05;;;;;;;5.32;2.58;;;;;;;;;;5053398;28;20024;-68
2022/11/09 07:20:30;;;;;;;9.23;3.03;;;;;;;;;;5053219;28;20033;-65
2022/11/09 07:22:55;;;;;;;8.07;2.60;;;;;;;;;;5053115;28;20083;-66
2022/11/09 07:25:22;;;;;;;5.32;2.55;;;;;;;;;;5053273;28;20037;-67
2022/11/09 07:27:47;;;;;;;8.85;3.28;;;;;;;;;;5052856;28;20499;-66
2022/11/09 07:30:13;;;;;;;20.13;3.45;;;;;;;;;;5052091;28;20037;-67
2022/11/09 07:32:39;;;;;;;5.68;2.88;;;;;;;;;;5052244;28;20060;-70
2022/11/09 07:35:06;;;;;;;4.32;2.50;;;;;;;;;;5052377;28;20464;-67
2022/11/09 07:37:32;;;;;;;5.78;2.38;;;;;;;;;;5052336;28;20534;-68
2022/11/09 07:39:57;;;;;;;6.60;2.60;;;;;;;;;;5052495;28;20072;-67
2022/11/09 07:42:24;;;;;;;8.75;2.90;;;;;;;;;;5052677;28;20029;-68
2022/11/09 07:44:49;;;;;;;4.70;2.85;;;;;;;;;;5052877;28;20383;-67
2022/11/09 07:47:17;;;;;;;7.20;3.28;;;;;;;;;;5052737;28;20062;-67
2022/11/09 07:49:42;;;;;;;6.55;2.85;;;;;;;;;;5052491;28;20475;-66
2022/11/09 07:52:08;;;;;;;9.30;2.95;;;;;;;;;;5052085;28;20036;-66
2022/11/09 07:54:33;;;;;;;8.50;2.40;;;;;;;;;;5052075;28;20035;-67
2022/11/09 07:56:59;;;;;;;3.80;2.33;;;;;;;;;;5051734;28;20029;-68
2022/11/09 07:59:24;;;;;;;4.60;2.60;;;;;;;;;;5051963;28;20086;-67
2022/11/09 08:01:50;;;;;;;5.85;3.22;;;;;;;;;;5064304;28;20032;-68
2022/11/09 08:04:16;;;;;;;5.47;2.40;;;;;;;;;;5072269;28;20086;-68
2022/11/09 08:06:41;;;;;;;5.72;2.25;;;;;;;;;;5072483;28;20032;-68
2022/11/09 08:09:07;;;;;;;5.00;2.60;;;;;;;;;;5072279;28;20095;-68
2022/11/09 08:11:32;;;;;;;5.20;2.60;;;;;;;;;;5071947;28;20410;-67
2022/11/09 08:13:58;;;;;;;4.97;2.22;;;;;;;;;;5072281;28;20071;-68
2022/11/09 08:16:23;;;;;;;4.18;2.25;;;;;;;;;;5072371;28;20033;-67
2022/11/09 08:18:49;;;;;;;9.40;2.90;;;;;;;;;;5071902;28;20025;-67
2022/11/09 08:21:15;;;;;;;4.65;2.42;;;;;;;;;;5071543;28;20028;-66
2022/11/09 08:23:41;;;;;;;7.97;2.60;;;;;;;;;;5072179;28;20489;-67
2022/11/09 08:26:07;;;;;;;8.98;3.10;;;;;;;;;;5071777;28;20375;-66
2022/11/09 08:28:33;;;;;;;5.90;2.35;;;;;;;;;;5071957;28;20033;-67
2022/11/09 08:31:00;;;;;;;11.15;3.75;;;;;;;;;;5071857;28;20103;-68
2022/11/09 08:33:28;;;;;;;5.88;2.80;;;;;;;;;;5071805;28;20035;-68
2022/11/09 08:35:54;;;;;;;4.10;2.13;;;;;;;;;;5071757;28;20115;-66
2022/11/09 08:38:19;;;;;;;7.18;3.22;;;;;;;;;;5071445;28;20383;-66
2022/11/09 08:40:45;;;;;;;5.10;2.97;;;;;;;;;;5070981;28;20051;-67
2022/11/09 08:43:12;;;;;;;6.45;3.25;;;;;;;;;;5071532;28;20049;-65
2022/11/09 08:45:39;;;;;;;4.75;2.63;;;;;;;;;;5071576;28;20031;-67
2022/11/09 08:48:06;;;;;;;6.60;2.92;;;;;;;;;;5069467;28;20078;-67
2022/11/09 08:50:33;;;;;;;8.35;3.20;;;;;;;;;;5072067;28;20183;-67
2022/11/09 08:53:00;;;;;;;5.28;2.40;;;;;;;;;;5072086;28;20074;-68
2022/11/09 08:55:26;;;;;;;7.50;2.90;;;;;;;;;;5071975;28;20055;-67
2022/11/09 08:57:56;;;;;;;7.80;3.00;;;;;;;;;;5072068;28;20060;-67
2022/11/09 09:00:22;;;;;;;7.25;2.80;;;;;;;;;;5071987;28;20475;-68
2022/11/09 09:02:48;;;;;;;6.22;2.70;;;;;;;;;;5072244;28;20031;-68
2022/11/09 09:05:14;;;;;;;5.55;2.75;;;;;;;;;;5071703;28;20394;-68
2022/11/09 09:07:39;;;;;;;6.35;2.65;;;;;;;;;;5072159;28;20055;-68
2022/11/09 09:10:05;;;;;;;8.25;2.72;;;;;;;;;;5071766;28;20475;-68
2022/11/09 09:12:31;;;;;;;3.67;2.33;;;;;;;;;;5072178;28;20032;-68
2022/11/09 09:14:57;;;;;;;6.25;2.88;;;;;;;;;;5072084;28;20021;-67
2022/11/09 09:17:22;;;;;;;9.18;2.53;;;;;;;;;;5071961;28;20463;-67
2022/11/09 09:19:48;;;;;;;6.35;2.55;;;;;;;;;;5071934;28;20020;-68
2022/11/09 09:22:13;;;;;;;3.78;2.30;;;;;;;;;;5071846;28;20437;-67
2022/11/09 09:24:39;;;;;;;6.70;2.67;;;;;;;;;;5071964;28;20123;-67
2022/11/09 09:27:04;;;;;;;4.68;2.40;;;;;;;;;;5071748;28;20463;-67
2022/11/09 09:29:30;;;;;;;3.67;2.30;;;;;;;;;;5071616;28;20372;-65
2022/11/09 09:31:56;;;;;;;8.40;2.55;;;;;;;;;;5067036;28;20040;-66
2022/11/09 09:34:21;;;;;;;6.07;3.00;;;;;;;;;;5054922;28;20455;-66
2022/11/09 09:36:47;;;;;;;5.65;2.50;;;;;;;;;;5063127;28;20336;-65
2022/11/09 09:39:12;;;;;;;6.57;3.03;;;;;;;;;;5074726;28;20025;-65
2022/11/09 09:41:58;;;;;;;5.70;2.35;;;;;;;;;;5075478;28;20041;-67
2022/11/09 09:44:29;;;;;;;6.40;2.50;;;;;;;;;;5075039;28;20078;-66
2022/11/09 09:47:17;;;;;;;5.53;2.78;;;;;;;;;;5075385;28;20434;-66
2022/11/09 09:49:48;;;;;;;5.60;2.63;;;;;;;;;;5075093;28;20086;-66
2022/11/09 09:52:22;;;;;;;3.75;2.60;;;;;;;;;;5075045;28;20428;-66
2022/11/09 09:55:08;;;;;;;6.35;3.35;;;;;;;;;;5074979;28;20029;-65
2022/11/09 09:57:36;;;;;;;8.18;3.33;;;;;;;;;;5074953;28;20082;-65
2022/11/09 10:00:05;;;;;;;6.53;3.20;;;;;;;;;;5074974;28;20024;-67
2022/11/09 10:02:35;;;;;;;9.40;3.40;;;;;;;;;;5074772;28;20042;-66
2022/11/09 10:05:06;;;;;;;5.57;3.08;;;;;;;;;;5073744;28;20094;-66
2022/11/09 10:07:44;;;;;;;4.50;2.53;;;;;;;;;;5074463;28;20502;-66
2022/11/09 10:10:15;;;;;;;8.10;3.10;;;;;;;;;;5074339;28;20028;-66
2022/11/09 10:13:02;;;;;;;7.47;3.22;;;;;;;;;;5074740;28;20352;-66
2022/11/09 10:15:40;;;;;;;4.43;3.25;;;;;;;;;;5074731;28;20035;-65
2022/11/09 10:18:24;;;;;;;4.57;2.97;;;;;;;;;;5059757;28;20495;-65
2022/11/09 10:21:12;;;;;;;3.78;2.58;;;;;;;;;;5062305;28;20379;-64
2022/11/09 10:24:04;;;;;;;4.53;3.05;;;;;;;;;;5065419;28;20068;-64
2022/11/09 10:26:43;;;;;;;4.93;3.08;;;;;;;;;;5054455;28;20017;-66
2022/11/09 10:29:23;;;;;;;5.38;3.25;;;;;;;;;;5073909;28;20032;-66
2022/11/09 10:31:54;;;;;;;5.38;3.20;;;;;;;;;;5070232;28;20033;-66
2022/11/09 10:34:54;;;;;;;8.07;3.80;;;;;;;;;;5054257;28;20029;-66
2022/11/09 10:37:26;;;;;;;6.15;3.33;;;;;;;;;;5049997;28;20037;-66
2022/11/09 10:39:59;;;;;;;5.95;3.42;;;;;;;;;;5054076;28;20049;-66
2022/11/09 10:42:25;;;;;;;5.30;3.20;;;;;;;;;;5054887;28;20029;-66
2022/11/09 10:44:50;;;;;;;6.35;3.75;;;;;;;;;;5073999;28;20035;-66
2022/11/09 10:47:17;;;;;;;6.18;3.60;;;;;;;;;;5074103;28;20020;-66
2022/11/09 10:49:43;;;;;;;5.20;3.47;;;;;;;;;;5074047;28;20081;-65
2022/11/09 10:52:30;;;;;;;10.93;4.15;;;;;;;;;;5073808;28;20025;-68
2022/11/09 10:55:14;;;;;;;6.93;3.92;;;;;;;;;;5073942;28;20028;-64
2022/11/09 10:57:51;;;;;;;6.38;3.00;;;;;;;;;;5073820;28;20028;-65
2022/11/09 11:00:18;;;;;;;7.97;3.42;;;;;;;;;;5073685;28;20059;-68
2022/11/09 11:02:46;;;;;;;7.07;4.07;;;;;;;;;;5061890;28;20025;-67
2022/11/09 11:05:17;;;;;;;13.77;4.45;;;;;;;;;;5053626;28;20070;-68
2022/11/09 11:07:44;;;;;;;6.47;3.50;;;;;;;;;;5053180;28;20047;-66
2022/11/09 11:10:13;;;;;;;8.18;3.97;;;;;;;;;;5053605;28;20104;-66
2022/11/09 11:12:39;;;;;;;6.38;2.72;;;;;;;;;;5056157;28;20130;-67
2022/11/09 11:15:52;;;;;;;5.80;3.30;;;;;;;;;;5073511;28;20118;-66
2022/11/09 11:18:24;;;;;;;4.90;3.47;;;;;;;;;;5064212;28;20036;-68
2022/11/09 11:21:14;;;;;;;5.13;3.00;;;;;;;;;;5073215;28;20135;-66
2022/11/09 11:23:39;;;;;;;7.82;3.63;;;;;;;;;;5073460;28;20025;-65
2022/11/09 11:26:13;;;;;;;8.82;4.32;;;;;;;;;;5073368;28;20063;-65
2022/11/09 11:28:44;;;;;;;8.90;3.90;;;;;;;;;;5073205;28;20059;-65
2022/11/09 11:31:20;;;;;;;9.55;4.35;;;;;;;;;;5073217;28;20074;-66
2022/11/09 11:33:46;;;;;;;6.45;3.95;;;;;;;;;;5052944;28;20029;-67
2022/11/09 11:36:49;;;;;;;7.00;4.38;;;;;;;;;;5058030;28;20090;-66
2022/11/09 11:39:23;;;;;;;7.50;4.45;;;;;;;;;;5071817;28;20082;-66
2022/11/09 11:42:02;;;;;;;7.47;4.55;;;;;;;;;;5073236;28;20032;-66
2022/11/09 11:44:57;;;;;;;9.30;4.28;;;;;;;;;;5072919;28;20058;-66
2022/11/09 11:48:10;;;;;;;10.93;6.70;;;;;;;;;;5072981;28;20120;-65
2022/11/09 11:50:53;;;;;;;6.53;3.70;;;;;;;;;;5072761;28;20410;-66
2022/11/09 11:53:46;;;;;;;8.55;3.90;;;;;;;;;;5072782;28;20028;-67
2022/11/09 11:56:18;;;;;;;7.38;3.83;;;;;;;;;;5070969;28;20082;-64
2022/11/09 11:58:43;;;;;;;10.02;3.75;;;;;;;;;;5072750;28;20128;-65
2022/11/09 12:01:24;;;;;;;5.22;3.50;;;;;;;;;;5072651;28;20111;-67
2022/11/09 12:04:14;;;;;;;7.43;3.80;;;;;;;;;;5072437;28;20535;-66
2022/11/09 12:06:49;;;;;;;8.88;3.80;;;;;;;;;;5072377;28;20428;-66
2022/11/09 12:09:50;;;;;;;6.97;3.58;;;;;;;;;;5072492;28;20020;-66
2022/11/09 12:12:31;;;;;;;6.95;3.80;;;;;;;;;;5050338;28;20423;-66
2022/11/09 12:15:17;;;;;;;8.30;4.28;;;;;;;;;;5050437;28;20079;-66
2022/11/09 12:18:00;;;;;;;6.57;4.30;;;;;;;;;;5050396;28;20037;-66
2022/11/09 12:20:35;;;;;;;7.72;4.00;;;;;;;;;;5050140;28;20608;-67
2022/11/09 12:23:19;;;;;;;7.13;4.03;;;;;;;;;;5050417;28;20045;-66
2022/11/09 12:25:51;;;;;;;7.40;4.22;;;;;;;;;;5049991;28;20525;-67
2022/11/09 12:28:38;;;;;;;6.50;3.50;;;;;;;;;;5050177;28;20116;-66
2022/11/09 12:31:15;;;;;;;8.23;4.10;;;;;;;;;;5050174;28;20029;-67
2022/11/09 12:34:05;;;;;;;9.43;4.38;;;;;;;;;;5049800;28;20107;-67
2022/11/09 12:36:37;;;;;;;;;;;;;;;;;;5050618;28;20402;-66
2022/11/09 12:39:17;;;;;;;6.50;3.75;;;;;;;;;;5049755;28;19912;-66
2022/11/09 12:41:46;;;;;;;7.57;3.73;;;;;;;;;;5050198;28;20037;-67
2022/11/09 12:44:17;;;;;;;6.85;3.80;;;;;;;;;;5050069;28;20075;-65
2022/11/09 12:46:58;;;;;;;8.57;4.05;;;;;;;;;;5051600;28;20510;-66
2022/11/09 12:49:50;;;;;;;8.55;4.32;;;;;;;;;;5051939;28;20087;-67
2022/11/09 12:52:19;;;;;;;6.60;3.58;;;;;;;;;;5050942;28;20037;-66
2022/11/09 12:54:48;;;;;;;9.77;4.27;;;;;;;;;;5052254;28;20033;-66
2022/11/09 12:57:21;;;;;;;5.80;3.45;;;;;;;;;;5054232;28;20025;-66
2022/11/09 12:59:56;;;;;;;6.53;3.70;;;;;;;;;;5063386;28;20055;-67
2022/11/09 13:02:29;;;;;;;4.28;2.58;;;;;;;;;;5071577;28;20111;-65
2022/11/09 13:05:06;;;;;;;7.30;3.30;;;;;;;;;;5072045;28;20048;-66
2022/11/09 13:07:45;;;;;;;5.57;3.30;;;;;;;;;;5073980;28;20403;-66
2022/11/09 13:10:25;;;;;;;5.80;3.78;;;;;;;;;;5076091;28;20032;-67
2022/11/09 13:13:01;;;;;;;6.88;3.50;;;;;;;;;;5075949;28;20025;-66
2022/11/09 13:15:30;;;;;;;7.45;3.80;;;;;;;;;;5075731;28;20025;-66
2022/11/09 13:18:03;;;;;;;6.13;3.60;;;;;;;;;;5075552;28;20099;-67
2022/11/09 13:20:39;;;;;;;5.72;3.95;;;;;;;;;;5075555;28;20032;-66
2022/11/09 13:23:34;;;;;;;7.38;3.38;;;;;;;;;;5075512;28;20024;-67
2022/11/09 13:26:01;;;;;;;6.72;3.80;;;;;;;;;;5075803;28;20115;-66
2022/11/09 13:28:26;;;;;;;5.82;3.22;;;;;;;;;;5075287;28;20545;-65
2022/11/09 13:31:03;;;;;;;9.75;3.67;;;;;;;;;;5075395;28;20024;-67
2022/11/09 13:33:32;;;;;;;5.35;3.47;;;;;;;;;;5075282;28;20045;-64
2022/11/09 13:36:08;;;;;;;6.95;3.55;;;;;;;;;;5075392;28;20036;-65
2022/11/09 13:38:35;;;;;;;6.75;3.10;;;;;;;;;;5075148;28;20060;-66
2022/11/09 13:41:02;;;;;;;6.75;3.42;;;;;;;;;;5075321;28;20068;-64
2022/11/09 13:43:33;;;;;;;8.73;3.53;;;;;;;;;;5075241;28;20390;-68
2022/11/09 13:46:21;;;;;;;7.25;3.47;;;;;;;;;;5075129;28;20039;-65
2022/11/09 13:48:47;;;;;;;5.97;3.28;;;;;;;;;;5075140;28;20032;-66
2022/11/09 13:51:19;;;;;;;5.82;3.15;;;;;;;;;;5075061;28;20033;-67
2022/11/09 13:53:52;;;;;;;8.77;3.35;;;;;;;;;;5075133;28;20029;-67
2022/11/09 13:56:34;;;;;;;6.43;3.33;;;;;;;;;;5075127;28;20471;-67
2022/11/09 13:59:24;;;;;;;9.18;3.50;;;;;;;;;;5073692;28;20395;-67
2022/11/09 14:01:50;;;;;;;;;;;;;;;;;;5075391;28;20021;-67
2022/11/09 14:04:36;;;;;;;5.65;3.20;;;;;;;;;;5074669;28;20072;-67
2022/11/09 14:07:06;;;;;;;6.25;3.00;;;;;;;;;;5074924;28;20107;-67
2022/11/09 14:09:53;;;;;;;6.82;2.88;;;;;;;;;;5074564;28;20418;-65
2022/11/09 14:12:22;;;;;;;5.28;3.25;;;;;;;;;;5074678;28;20480;-66
2022/11/09 14:14:53;;;;;;;5.07;3.33;;;;;;;;;;5074501;28;20032;-65
2022/11/09 14:17:41;;;;;;;7.93;4.22;;;;;;;;;;5074516;28;20035;-66
2022/11/09 14:20:45;;;;;;;5.95;3.58;;;;;;;;;;5073972;28;20444;-65
2022/11/09 14:23:19;;;;;;;5.38;2.90;;;;;;;;;;5074469;28;20143;-67
2022/11/09 14:25:45;;;;;;;5.43;2.88;;;;;;;;;;5074579;28;20025;-66
2022/11/09 14:28:22;;;;;;;8.95;2.88;;;;;;;;;;5074519;28;20024;-67
2022/11/09 14:30:47;;;;;;;6.38;2.92;;;;;;;;;;5074092;28;20031;-66
2022/11/09 14:33:23;;;;;;;5.88;3.00;;;;;;;;;;5074230;28;20028;-66
2022/11/09 14:35:50;;;;;;;6.70;3.92;;;;;;;;;;5074405;28;20029;-66
2022/11/09 14:38:29;;;;;;;11.30;4.32;;;;;;;;;;5074050;28;20020;-67
2022/11/09 14:40:55;;;;;;;6.22;3.63;;;;;;;;;;5073983;28;20407;-67
2022/11/09 14:43:41;;;;;;;5.63;3.33;;;;;;;;;;5073961;28;20027;-65
2022/11/09 14:46:15;;;;;;;6.68;4.20;;;;;;;;;;5074313;28;20089;-66
2022/11/09 14:48:53;;;;;;;7.35;3.83;;;;;;;;;;5074137;28;20029;-65
2022/11/09 14:51:20;;;;;;;8.43;3.92;;;;;;;;;;5074004;28;20033;-67
2022/11/09 14:53:47;;;;;;;8.10;3.28;;;;;;;;;;5073877;28;20027;-65
2022/11/09 14:56:18;;;;;;;6.75;4.32;;;;;;;;;;5073977;28;20036;-67
2022/11/09 14:58:45;;;;;;;12.55;4.70;;;;;;;;;;5073676;28;20024;-65
2022/11/09 15:01:16;;;;;;;4.80;3.40;;;;;;;;;;5073525;28;20056;-67
2022/11/09 15:03:43;;;;;;;6.80;4.10;;;;;;;;;;5073861;28;20425;-66
2022/11/09 15:06:13;;;;;;;9.23;4.35;;;;;;;;;;5073732;28;20020;-66